sensor_id;sensor_type;location;lat;lon;timestamp;temperature;humidity
17364;DHT22;8799;43.594;13.526;2022-10-16T00:01:32;20.70;99.90
17364;DHT22;8799;43.594;13.526;2022-10-16T00:04:01;20.70;99.90
17364;DHT22;8799;43.594;13.526;2022-10-16T00:06:54;20.70;99.90
17364;DHT22;8799;43.594;13.526;2022-10-16T00:09:32;20.60;99.90
17364;DHT22;8799;43.594;13.526;2022-10-16T00:12:01;20.90;99.90
17364;DHT22;8799;43.594;13.526;2022-10-16T00:14:32;20.70;99.90
17364;DHT22;8799;43.594;13.526;2022-10-16T00:17:00;20.70;99.90
17364;DHT22;8799;43.594;13.526;2022-10-16T00:19:28;20.70;99.90
17364;DHT22;8799;43.594;13.526;2022-10-16T00:21:57;20.70;99.90
17364;DHT22;8799;43.594;13.526;2022-10-16T00:24:24;20.70;99.90
17364;DHT22;8799;43.594;13.526;2022-10-16T00:26:52;20.70;99.90
17364;DHT22;8799;43.594;13.526;2022-10-16T00:29:24;20.70;99.90
17364;DHT22;8799;43.594;13.526;2022-10-16T00:31:52;20.70;99.90
17364;DHT22;8799;43.594;13.526;2022-10-16T00:34:21;20.70;99.90
17364;DHT22;8799;43.594;13.526;2022-10-16T00:36:48;20.70;99.90
17364;DHT22;8799;43.594;13.526;2022-10-16T00:39:18;20.70;99.90
17364;DHT22;8799;43.594;13.526;2022-10-16T00:41:45;20.70;99.90
17364;DHT22;8799;43.594;13.526;2022-10-16T00:44:42;20.70;99.90
17364;DHT22;8799;43.594;13.526;2022-10-16T00:47:11;20.70;99.90
17364;DHT22;8799;43.594;13.526;2022-10-16T00:49:39;20.70;99.90
17364;DHT22;8799;43.594;13.526;2022-10-16T00:52:12;20.70;99.90
17364;DHT22;8799;43.594;13.526;2022-10-16T00:54:42;20.70;99.90
17364;DHT22;8799;43.594;13.526;2022-10-16T00:57:09;20.70;99.90
17364;DHT22;8799;43.594;13.526;2022-10-16T00:59:39;20.70;99.90
17364;DHT22;8799;43.594;13.526;2022-10-16T01:02:12;20.70;99.90
17364;DHT22;8799;43.594;13.526;2022-10-16T01:04:42;20.70;99.90
17364;DHT22;8799;43.594;13.526;2022-10-16T01:07:14;20.70;99.90
17364;DHT22;8799;43.594;13.526;2022-10-16T01:09:52;20.70;99.90
17364;DHT22;8799;43.594;13.526;2022-10-16T01:12:30;20.70;99.90
17364;DHT22;8799;43.594;13.526;2022-10-16T01:15:04;20.70;99.90
17364;DHT22;8799;43.594;13.526;2022-10-16T01:17:37;20.70;99.90
17364;DHT22;8799;43.594;13.526;2022-10-16T01:20:11;20.70;99.90
17364;DHT22;8799;43.594;13.526;2022-10-16T01:22:48;20.70;99.90
17364;DHT22;8799;43.594;13.526;2022-10-16T01:25:25;20.70;99.90
17364;DHT22;8799;43.594;13.526;2022-10-16T01:27:57;20.70;99.90
17364;DHT22;8799;43.594;13.526;2022-10-16T01:30:28;20.70;99.90
17364;DHT22;8799;43.594;13.526;2022-10-16T01:33:02;20.70;99.90
17364;DHT22;8799;43.594;13.526;2022-10-16T01:35:34;20.70;99.90
17364;DHT22;8799;43.594;13.526;2022-10-16T01:38:06;20.70;99.90
17364;DHT22;8799;43.594;13.526;2022-10-16T01:40:37;20.70;99.90
17364;DHT22;8799;43.594;13.526;2022-10-16T01:43:10;20.70;99.90
17364;DHT22;8799;43.594;13.526;2022-10-16T01:45:41;20.70;99.90
17364;DHT22;8799;43.594;13.526;2022-10-16T01:48:09;20.70;99.90
17364;DHT22;8799;43.594;13.526;2022-10-16T01:50:41;20.70;99.90
17364;DHT22;8799;43.594;13.526;2022-10-16T01:53:12;20.70;99.90
17364;DHT22;8799;43.594;13.526;2022-10-16T01:55:42;20.70;99.90
17364;DHT22;8799;43.594;13.526;2022-10-16T01:58:14;20.70;99.90
17364;DHT22;8799;43.594;13.526;2022-10-16T02:00:44;20.70;99.90
17364;DHT22;8799;43.594;13.526;2022-10-16T02:03:15;20.70;99.90
17364;DHT22;8799;43.594;13.526;2022-10-16T02:05:46;20.70;99.90
17364;DHT22;8799;43.594;13.526;2022-10-16T02:08:14;20.70;99.90
17364;DHT22;8799;43.594;13.526;2022-10-16T02:10:42;20.70;99.90
17364;DHT22;8799;43.594;13.526;2022-10-16T02:13:15;20.70;99.90
17364;DHT22;8799;43.594;13.526;2022-10-16T02:15:44;20.70;99.90
17364;DHT22;8799;43.594;13.526;2022-10-16T02:18:11;20.70;99.90
17364;DHT22;8799;43.594;13.526;2022-10-16T02:20:45;20.70;99.90
17364;DHT22;8799;43.594;13.526;2022-10-16T02:23:21;20.70;99.90
17364;DHT22;8799;43.594;13.526;2022-10-16T02:25:50;20.70;99.90
17364;DHT22;8799;43.594;13.526;2022-10-16T02:28:24;20.70;99.90
17364;DHT22;8799;43.594;13.526;2022-10-16T02:30:58;20.70;99.90
17364;DHT22;8799;43.594;13.526;2022-10-16T02:33:27;20.70;99.90
17364;DHT22;8799;43.594;13.526;2022-10-16T02:35:57;20.70;99.90
17364;DHT22;8799;43.594;13.526;2022-10-16T02:38:25;20.70;99.90
17364;DHT22;8799;43.594;13.526;2022-10-16T02:40:54;20.70;99.90
17364;DHT22;8799;43.594;13.526;2022-10-16T02:43:25;20.70;99.90
17364;DHT22;8799;43.594;13.526;2022-10-16T02:45:52;20.70;99.90
17364;DHT22;8799;43.594;13.526;2022-10-16T02:48:20;20.70;99.90
17364;DHT22;8799;43.594;13.526;2022-10-16T02:50:47;20.70;99.90
17364;DHT22;8799;43.594;13.526;2022-10-16T02:53:15;20.70;99.90
17364;DHT22;8799;43.594;13.526;2022-10-16T02:55:42;20.70;99.90
17364;DHT22;8799;43.594;13.526;2022-10-16T02:58:10;20.70;99.90
17364;DHT22;8799;43.594;13.526;2022-10-16T03:00:39;20.70;99.90
17364;DHT22;8799;43.594;13.526;2022-10-16T03:03:07;20.70;99.90
17364;DHT22;8799;43.594;13.526;2022-10-16T03:05:36;20.70;99.90
17364;DHT22;8799;43.594;13.526;2022-10-16T03:08:03;20.70;99.90
17364;DHT22;8799;43.594;13.526;2022-10-16T03:10:31;20.70;99.90
17364;DHT22;8799;43.594;13.526;2022-10-16T03:12:59;20.70;99.90
17364;DHT22;8799;43.594;13.526;2022-10-16T03:15:26;20.70;99.90
17364;DHT22;8799;43.594;13.526;2022-10-16T03:17:57;20.70;99.90
17364;DHT22;8799;43.594;13.526;2022-10-16T03:20:24;20.70;99.90
17364;DHT22;8799;43.594;13.526;2022-10-16T03:22:52;20.70;99.90
17364;DHT22;8799;43.594;13.526;2022-10-16T03:25:19;20.70;99.90
17364;DHT22;8799;43.594;13.526;2022-10-16T03:27:48;20.70;99.90
17364;DHT22;8799;43.594;13.526;2022-10-16T03:30:15;20.70;99.90
17364;DHT22;8799;43.594;13.526;2022-10-16T03:32:44;20.70;99.90
17364;DHT22;8799;43.594;13.526;2022-10-16T03:35:13;20.70;99.90
17364;DHT22;8799;43.594;13.526;2022-10-16T03:37:41;20.60;99.90
17364;DHT22;8799;43.594;13.526;2022-10-16T03:40:10;20.70;99.90
17364;DHT22;8799;43.594;13.526;2022-10-16T03:42:38;20.60;99.90
17364;DHT22;8799;43.594;13.526;2022-10-16T03:45:07;20.60;99.90
17364;DHT22;8799;43.594;13.526;2022-10-16T03:47:35;20.60;99.90
17364;DHT22;8799;43.594;13.526;2022-10-16T03:50:04;20.70;99.90
17364;DHT22;8799;43.594;13.526;2022-10-16T03:52:33;20.60;99.90
17364;DHT22;8799;43.594;13.526;2022-10-16T03:55:01;20.60;99.90
17364;DHT22;8799;43.594;13.526;2022-10-16T03:57:28;20.60;99.90
17364;DHT22;8799;43.594;13.526;2022-10-16T03:59:56;20.60;99.90
17364;DHT22;8799;43.594;13.526;2022-10-16T04:02:24;20.60;99.90
17364;DHT22;8799;43.594;13.526;2022-10-16T04:04:51;20.60;99.90
17364;DHT22;8799;43.594;13.526;2022-10-16T04:07:19;20.60;99.90
17364;DHT22;8799;43.594;13.526;2022-10-16T04:09:47;20.60;99.90
17364;DHT22;8799;43.594;13.526;2022-10-16T04:12:17;20.60;99.90
17364;DHT22;8799;43.594;13.526;2022-10-16T04:14:46;20.60;99.90
17364;DHT22;8799;43.594;13.526;2022-10-16T04:17:13;20.60;99.90
17364;DHT22;8799;43.594;13.526;2022-10-16T04:19:41;20.60;99.90
17364;DHT22;8799;43.594;13.526;2022-10-16T04:22:13;20.60;99.90
17364;DHT22;8799;43.594;13.526;2022-10-16T04:24:40;20.60;99.90
17364;DHT22;8799;43.594;13.526;2022-10-16T04:27:10;20.50;99.90
17364;DHT22;8799;43.594;13.526;2022-10-16T04:29:37;20.50;99.90
17364;DHT22;8799;43.594;13.526;2022-10-16T04:32:08;20.50;99.90
17364;DHT22;8799;43.594;13.526;2022-10-16T04:34:36;20.50;99.90
17364;DHT22;8799;43.594;13.526;2022-10-16T04:37:06;20.50;99.90
17364;DHT22;8799;43.594;13.526;2022-10-16T04:39:33;20.50;99.90
17364;DHT22;8799;43.594;13.526;2022-10-16T04:42:01;20.50;99.90
17364;DHT22;8799;43.594;13.526;2022-10-16T04:44:32;20.50;99.90
17364;DHT22;8799;43.594;13.526;2022-10-16T04:46:59;20.50;99.90
17364;DHT22;8799;43.594;13.526;2022-10-16T04:49:26;20.50;99.90
17364;DHT22;8799;43.594;13.526;2022-10-16T04:51:54;20.50;99.90
17364;DHT22;8799;43.594;13.526;2022-10-16T04:54:22;20.50;99.90
17364;DHT22;8799;43.594;13.526;2022-10-16T04:56:50;20.50;99.90
17364;DHT22;8799;43.594;13.526;2022-10-16T04:59:18;20.50;99.90
17364;DHT22;8799;43.594;13.526;2022-10-16T05:01:48;20.50;99.90
17364;DHT22;8799;43.594;13.526;2022-10-16T05:04:15;20.50;99.90
17364;DHT22;8799;43.594;13.526;2022-10-16T05:06:43;20.50;99.90
17364;DHT22;8799;43.594;13.526;2022-10-16T05:09:11;20.50;99.90
17364;DHT22;8799;43.594;13.526;2022-10-16T05:11:39;20.50;99.90
17364;DHT22;8799;43.594;13.526;2022-10-16T05:14:06;20.50;99.90
17364;DHT22;8799;43.594;13.526;2022-10-16T05:16:34;20.50;99.90
17364;DHT22;8799;43.594;13.526;2022-10-16T05:19:03;20.50;99.90
17364;DHT22;8799;43.594;13.526;2022-10-16T05:21:35;20.50;99.90
17364;DHT22;8799;43.594;13.526;2022-10-16T05:24:03;20.50;99.90
17364;DHT22;8799;43.594;13.526;2022-10-16T05:26:30;20.50;99.90
17364;DHT22;8799;43.594;13.526;2022-10-16T05:28:59;20.50;99.90
17364;DHT22;8799;43.594;13.526;2022-10-16T05:31:27;20.40;99.90
17364;DHT22;8799;43.594;13.526;2022-10-16T05:33:58;20.40;99.90
17364;DHT22;8799;43.594;13.526;2022-10-16T05:36:28;20.40;99.90
17364;DHT22;8799;43.594;13.526;2022-10-16T05:38:55;20.40;99.90
17364;DHT22;8799;43.594;13.526;2022-10-16T05:41:23;20.40;99.90
17364;DHT22;8799;43.594;13.526;2022-10-16T05:43:51;20.40;99.90
17364;DHT22;8799;43.594;13.526;2022-10-16T05:46:19;20.40;99.90
17364;DHT22;8799;43.594;13.526;2022-10-16T05:48:47;20.30;99.90
17364;DHT22;8799;43.594;13.526;2022-10-16T05:51:15;20.20;99.90
17364;DHT22;8799;43.594;13.526;2022-10-16T05:53:44;20.20;99.90
17364;DHT22;8799;43.594;13.526;2022-10-16T05:56:12;20.10;99.90
17364;DHT22;8799;43.594;13.526;2022-10-16T05:58:39;20.10;99.90
17364;DHT22;8799;43.594;13.526;2022-10-16T06:01:11;20.00;99.90
17364;DHT22;8799;43.594;13.526;2022-10-16T06:03:39;19.90;99.90
17364;DHT22;8799;43.594;13.526;2022-10-16T06:06:11;19.80;99.90
17364;DHT22;8799;43.594;13.526;2022-10-16T06:08:54;19.80;99.90
17364;DHT22;8799;43.594;13.526;2022-10-16T06:11:25;19.80;99.90
17364;DHT22;8799;43.594;13.526;2022-10-16T06:13:55;19.70;99.90
17364;DHT22;8799;43.594;13.526;2022-10-16T06:16:24;19.70;99.90
17364;DHT22;8799;43.594;13.526;2022-10-16T06:18:52;19.70;99.90
17364;DHT22;8799;43.594;13.526;2022-10-16T06:21:24;19.70;99.90
17364;DHT22;8799;43.594;13.526;2022-10-16T06:23:53;19.60;99.90
17364;DHT22;8799;43.594;13.526;2022-10-16T06:26:24;19.60;99.90
17364;DHT22;8799;43.594;13.526;2022-10-16T06:28:53;19.60;99.90
17364;DHT22;8799;43.594;13.526;2022-10-16T06:31:21;19.60;99.90
17364;DHT22;8799;43.594;13.526;2022-10-16T06:33:51;19.60;99.90
17364;DHT22;8799;43.594;13.526;2022-10-16T06:36:18;19.60;99.90
17364;DHT22;8799;43.594;13.526;2022-10-16T06:38:46;19.60;99.90
17364;DHT22;8799;43.594;13.526;2022-10-16T06:41:16;19.60;99.90
17364;DHT22;8799;43.594;13.526;2022-10-16T06:43:45;19.60;99.90
17364;DHT22;8799;43.594;13.526;2022-10-16T06:46:15;19.60;99.90
17364;DHT22;8799;43.594;13.526;2022-10-16T06:48:43;19.60;99.90
17364;DHT22;8799;43.594;13.526;2022-10-16T06:51:12;19.60;99.90
17364;DHT22;8799;43.594;13.526;2022-10-16T06:53:42;19.60;99.90
17364;DHT22;8799;43.594;13.526;2022-10-16T06:56:12;19.60;99.90
17364;DHT22;8799;43.594;13.526;2022-10-16T06:58:42;19.60;99.90
17364;DHT22;8799;43.594;13.526;2022-10-16T07:01:11;19.70;99.90
17364;DHT22;8799;43.594;13.526;2022-10-16T07:03:44;19.80;99.90
17364;DHT22;8799;43.594;13.526;2022-10-16T07:06:14;19.80;99.90
17364;DHT22;8799;43.594;13.526;2022-10-16T07:08:43;19.90;99.90
17364;DHT22;8799;43.594;13.526;2022-10-16T07:11:12;19.90;99.90
17364;DHT22;8799;43.594;13.526;2022-10-16T07:13:43;20.00;99.90
17364;DHT22;8799;43.594;13.526;2022-10-16T07:16:13;19.90;99.90
17364;DHT22;8799;43.594;13.526;2022-10-16T07:18:42;20.00;99.90
17364;DHT22;8799;43.594;13.526;2022-10-16T07:21:13;19.90;99.90
17364;DHT22;8799;43.594;13.526;2022-10-16T07:23:41;19.80;99.90
17364;DHT22;8799;43.594;13.526;2022-10-16T07:26:09;19.80;99.90
17364;DHT22;8799;43.594;13.526;2022-10-16T07:28:37;19.80;99.90
17364;DHT22;8799;43.594;13.526;2022-10-16T07:31:10;19.70;99.90
17364;DHT22;8799;43.594;13.526;2022-10-16T07:33:42;19.70;99.90
17364;DHT22;8799;43.594;13.526;2022-10-16T07:36:10;19.70;99.90
17364;DHT22;8799;43.594;13.526;2022-10-16T07:38:42;19.60;99.90
17364;DHT22;8799;43.594;13.526;2022-10-16T07:41:12;19.60;99.90
17364;DHT22;8799;43.594;13.526;2022-10-16T07:43:40;19.60;99.90
17364;DHT22;8799;43.594;13.526;2022-10-16T07:46:09;19.60;99.90
17364;DHT22;8799;43.594;13.526;2022-10-16T07:48:37;19.60;99.90
17364;DHT22;8799;43.594;13.526;2022-10-16T07:51:06;19.60;99.90
17364;DHT22;8799;43.594;13.526;2022-10-16T07:53:34;19.70;99.90
17364;DHT22;8799;43.594;13.526;2022-10-16T07:56:04;19.70;99.90
17364;DHT22;8799;43.594;13.526;2022-10-16T07:58:33;19.70;99.90
17364;DHT22;8799;43.594;13.526;2022-10-16T08:01:03;19.70;99.90
17364;DHT22;8799;43.594;13.526;2022-10-16T08:03:33;19.70;99.90
17364;DHT22;8799;43.594;13.526;2022-10-16T08:06:02;19.70;99.90
17364;DHT22;8799;43.594;13.526;2022-10-16T08:08:30;19.80;99.90
17364;DHT22;8799;43.594;13.526;2022-10-16T08:10:58;19.80;99.90
17364;DHT22;8799;43.594;13.526;2022-10-16T08:13:26;19.80;99.90
17364;DHT22;8799;43.594;13.526;2022-10-16T08:15:54;19.80;99.90
17364;DHT22;8799;43.594;13.526;2022-10-16T08:18:22;19.80;99.90
17364;DHT22;8799;43.594;13.526;2022-10-16T08:20:56;19.80;99.90
17364;DHT22;8799;43.594;13.526;2022-10-16T08:23:25;19.80;99.90
17364;DHT22;8799;43.594;13.526;2022-10-16T08:25:53;19.80;99.90
17364;DHT22;8799;43.594;13.526;2022-10-16T08:28:21;19.90;99.90
17364;DHT22;8799;43.594;13.526;2022-10-16T08:30:49;19.90;99.90
17364;DHT22;8799;43.594;13.526;2022-10-16T08:33:17;19.90;99.90
17364;DHT22;8799;43.594;13.526;2022-10-16T08:35:51;19.90;99.90
17364;DHT22;8799;43.594;13.526;2022-10-16T08:38:25;19.90;99.90
17364;DHT22;8799;43.594;13.526;2022-10-16T08:40:55;19.90;99.90
17364;DHT22;8799;43.594;13.526;2022-10-16T08:43:35;19.90;99.90
17364;DHT22;8799;43.594;13.526;2022-10-16T08:46:22;20.00;99.90
17364;DHT22;8799;43.594;13.526;2022-10-16T08:48:54;20.00;99.90
17364;DHT22;8799;43.594;13.526;2022-10-16T08:51:25;20.00;99.90
17364;DHT22;8799;43.594;13.526;2022-10-16T08:53:56;20.00;99.90
17364;DHT22;8799;43.594;13.526;2022-10-16T08:56:25;20.00;99.90
17364;DHT22;8799;43.594;13.526;2022-10-16T08:58:53;20.00;99.90
17364;DHT22;8799;43.594;13.526;2022-10-16T09:01:23;20.00;99.90
17364;DHT22;8799;43.594;13.526;2022-10-16T09:04:04;20.10;99.90
17364;DHT22;8799;43.594;13.526;2022-10-16T09:06:43;20.00;99.90
17364;DHT22;8799;43.594;13.526;2022-10-16T09:09:36;20.00;99.90
17364;DHT22;8799;43.594;13.526;2022-10-16T09:12:10;20.00;99.90
17364;DHT22;8799;43.594;13.526;2022-10-16T09:14:56;20.00;99.90
17364;DHT22;8799;43.594;13.526;2022-10-16T09:17:36;20.00;99.90
17364;DHT22;8799;43.594;13.526;2022-10-16T09:23:10;20.00;99.90
17364;DHT22;8799;43.594;13.526;2022-10-16T09:25:46;20.00;99.90
17364;DHT22;8799;43.594;13.526;2022-10-16T09:28:15;20.00;99.90
17364;DHT22;8799;43.594;13.526;2022-10-16T09:30:44;20.00;99.90
17364;DHT22;8799;43.594;13.526;2022-10-16T09:33:12;20.00;99.90
17364;DHT22;8799;43.594;13.526;2022-10-16T09:35:43;20.00;99.90
17364;DHT22;8799;43.594;13.526;2022-10-16T09:38:22;20.00;99.90
17364;DHT22;8799;43.594;13.526;2022-10-16T09:40:51;20.10;99.90
17364;DHT22;8799;43.594;13.526;2022-10-16T09:43:24;20.10;99.90
17364;DHT22;8799;43.594;13.526;2022-10-16T09:46:00;20.10;99.90
17364;DHT22;8799;43.594;13.526;2022-10-16T09:48:33;20.10;99.90
17364;DHT22;8799;43.594;13.526;2022-10-16T09:51:04;20.10;99.90
17364;DHT22;8799;43.594;13.526;2022-10-16T09:53:40;20.10;99.90
17364;DHT22;8799;43.594;13.526;2022-10-16T09:56:11;20.10;99.90
17364;DHT22;8799;43.594;13.526;2022-10-16T09:58:49;20.10;99.90
17364;DHT22;8799;43.594;13.526;2022-10-16T10:01:19;20.10;99.90
17364;DHT22;8799;43.594;13.526;2022-10-16T10:03:47;20.10;99.90
17364;DHT22;8799;43.594;13.526;2022-10-16T10:06:22;20.10;99.90
17364;DHT22;8799;43.594;13.526;2022-10-16T10:08:55;20.10;99.90
17364;DHT22;8799;43.594;13.526;2022-10-16T10:11:42;20.20;99.90
17364;DHT22;8799;43.594;13.526;2022-10-16T10:14:20;20.10;99.90
17364;DHT22;8799;43.594;13.526;2022-10-16T10:16:48;20.20;99.90
17364;DHT22;8799;43.594;13.526;2022-10-16T10:19:18;20.10;99.90
17364;DHT22;8799;43.594;13.526;2022-10-16T10:21:46;20.20;99.90
17364;DHT22;8799;43.594;13.526;2022-10-16T10:24:15;20.20;99.90
17364;DHT22;8799;43.594;13.526;2022-10-16T10:26:50;20.20;99.90
17364;DHT22;8799;43.594;13.526;2022-10-16T10:29:31;20.20;99.90
17364;DHT22;8799;43.594;13.526;2022-10-16T10:32:12;20.20;99.90
17364;DHT22;8799;43.594;13.526;2022-10-16T10:34:55;20.20;99.90
17364;DHT22;8799;43.594;13.526;2022-10-16T10:37:35;20.20;99.90
17364;DHT22;8799;43.594;13.526;2022-10-16T10:40:14;20.20;99.90
17364;DHT22;8799;43.594;13.526;2022-10-16T10:42:48;20.20;99.90
17364;DHT22;8799;43.594;13.526;2022-10-16T10:45:25;20.20;99.90
17364;DHT22;8799;43.594;13.526;2022-10-16T10:48:03;20.20;99.90
17364;DHT22;8799;43.594;13.526;2022-10-16T10:50:38;20.20;99.90
17364;DHT22;8799;43.594;13.526;2022-10-16T10:53:14;20.20;99.90
17364;DHT22;8799;43.594;13.526;2022-10-16T10:55:47;20.20;99.90
17364;DHT22;8799;43.594;13.526;2022-10-16T10:58:42;20.20;99.90
17364;DHT22;8799;43.594;13.526;2022-10-16T11:01:15;20.20;99.90
17364;DHT22;8799;43.594;13.526;2022-10-16T11:03:58;20.20;99.90
17364;DHT22;8799;43.594;13.526;2022-10-16T11:06:33;20.20;99.90
17364;DHT22;8799;43.594;13.526;2022-10-16T11:09:09;20.30;99.90
17364;DHT22;8799;43.594;13.526;2022-10-16T11:11:41;20.30;99.90
17364;DHT22;8799;43.594;13.526;2022-10-16T11:14:16;20.30;99.90
17364;DHT22;8799;43.594;13.526;2022-10-16T11:16:50;20.30;99.90
17364;DHT22;8799;43.594;13.526;2022-10-16T11:19:28;20.30;99.90
17364;DHT22;8799;43.594;13.526;2022-10-16T11:22:03;20.30;99.90
17364;DHT22;8799;43.594;13.526;2022-10-16T11:24:42;20.30;99.90
17364;DHT22;8799;43.594;13.526;2022-10-16T11:27:14;20.30;99.90
17364;DHT22;8799;43.594;13.526;2022-10-16T11:29:50;20.30;99.90
17364;DHT22;8799;43.594;13.526;2022-10-16T11:32:25;20.30;99.90
17364;DHT22;8799;43.594;13.526;2022-10-16T11:34:59;20.30;99.90
17364;DHT22;8799;43.594;13.526;2022-10-16T11:37:30;20.40;99.90
17364;DHT22;8799;43.594;13.526;2022-10-16T11:40:09;20.40;99.90
17364;DHT22;8799;43.594;13.526;2022-10-16T11:42:48;20.40;99.90
17364;DHT22;8799;43.594;13.526;2022-10-16T11:45:26;20.40;99.90
17364;DHT22;8799;43.594;13.526;2022-10-16T11:48:01;20.40;99.90
17364;DHT22;8799;43.594;13.526;2022-10-16T11:50:36;20.40;99.90
17364;DHT22;8799;43.594;13.526;2022-10-16T11:53:13;20.40;99.90
17364;DHT22;8799;43.594;13.526;2022-10-16T11:55:42;20.40;99.90
17364;DHT22;8799;43.594;13.526;2022-10-16T11:58:19;20.40;99.90
17364;DHT22;8799;43.594;13.526;2022-10-16T12:00:57;20.40;99.90
17364;DHT22;8799;43.594;13.526;2022-10-16T12:03:29;20.40;99.90
17364;DHT22;8799;43.594;13.526;2022-10-16T12:06:14;20.40;99.90
17364;DHT22;8799;43.594;13.526;2022-10-16T12:08:47;20.40;99.90
17364;DHT22;8799;43.594;13.526;2022-10-16T12:11:30;20.40;99.90
17364;DHT22;8799;43.594;13.526;2022-10-16T12:14:17;20.40;99.90
17364;DHT22;8799;43.594;13.526;2022-10-16T12:16:56;20.40;99.90
17364;DHT22;8799;43.594;13.526;2022-10-16T12:19:25;20.40;99.90
17364;DHT22;8799;43.594;13.526;2022-10-16T12:21:56;20.50;99.90
17364;DHT22;8799;43.594;13.526;2022-10-16T12:24:35;20.40;99.90
17364;DHT22;8799;43.594;13.526;2022-10-16T12:27:05;20.40;99.90
17364;DHT22;8799;43.594;13.526;2022-10-16T12:29:36;20.50;99.90
17364;DHT22;8799;43.594;13.526;2022-10-16T12:32:22;20.40;99.90
17364;DHT22;8799;43.594;13.526;2022-10-16T12:34:52;20.40;99.90
17364;DHT22;8799;43.594;13.526;2022-10-16T12:37:22;20.40;99.90
17364;DHT22;8799;43.594;13.526;2022-10-16T12:39:52;20.40;99.90
17364;DHT22;8799;43.594;13.526;2022-10-16T12:42:30;20.40;99.90
17364;DHT22;8799;43.594;13.526;2022-10-16T12:44:59;20.40;99.90
17364;DHT22;8799;43.594;13.526;2022-10-16T12:47:46;20.50;99.90
17364;DHT22;8799;43.594;13.526;2022-10-16T12:50:33;20.40;99.90
17364;DHT22;8799;43.594;13.526;2022-10-16T12:53:02;20.40;99.90
17364;DHT22;8799;43.594;13.526;2022-10-16T12:55:35;20.40;99.90
17364;DHT22;8799;43.594;13.526;2022-10-16T12:58:22;20.40;99.90
17364;DHT22;8799;43.594;13.526;2022-10-16T13:00:56;20.40;99.90
17364;DHT22;8799;43.594;13.526;2022-10-16T13:03:42;20.40;99.90
17364;DHT22;8799;43.594;13.526;2022-10-16T13:06:19;20.40;99.90
17364;DHT22;8799;43.594;13.526;2022-10-16T13:09:11;20.50;99.90
17364;DHT22;8799;43.594;13.526;2022-10-16T13:12:01;20.50;99.90
17364;DHT22;8799;43.594;13.526;2022-10-16T13:15:16;20.50;99.90
17364;DHT22;8799;43.594;13.526;2022-10-16T13:17:54;20.60;99.90
17364;DHT22;8799;43.594;13.526;2022-10-16T13:20:30;20.50;99.90
17364;DHT22;8799;43.594;13.526;2022-10-16T13:23:10;20.60;99.90
17364;DHT22;8799;43.594;13.526;2022-10-16T13:25:49;20.50;99.90
17364;DHT22;8799;43.594;13.526;2022-10-16T13:28:22;20.60;99.90
17364;DHT22;8799;43.594;13.526;2022-10-16T13:30:57;20.50;99.90
17364;DHT22;8799;43.594;13.526;2022-10-16T13:33:31;20.50;99.90
17364;DHT22;8799;43.594;13.526;2022-10-16T13:36:01;20.50;99.90
17364;DHT22;8799;43.594;13.526;2022-10-16T13:38:31;20.50;99.90
17364;DHT22;8799;43.594;13.526;2022-10-16T13:41:00;20.50;99.90
17364;DHT22;8799;43.594;13.526;2022-10-16T13:43:32;20.50;99.90
17364;DHT22;8799;43.594;13.526;2022-10-16T13:46:03;20.50;99.90
17364;DHT22;8799;43.594;13.526;2022-10-16T13:48:33;20.50;99.90
17364;DHT22;8799;43.594;13.526;2022-10-16T13:51:13;20.60;99.90
17364;DHT22;8799;43.594;13.526;2022-10-16T13:53:43;20.50;99.90
17364;DHT22;8799;43.594;13.526;2022-10-16T13:56:13;20.50;99.90
17364;DHT22;8799;43.594;13.526;2022-10-16T13:59:05;20.60;99.90
17364;DHT22;8799;43.594;13.526;2022-10-16T14:01:40;20.60;99.90
17364;DHT22;8799;43.594;13.526;2022-10-16T14:04:10;20.60;99.90
17364;DHT22;8799;43.594;13.526;2022-10-16T14:06:43;20.60;99.90
17364;DHT22;8799;43.594;13.526;2022-10-16T14:09:21;20.60;99.90
17364;DHT22;8799;43.594;13.526;2022-10-16T14:11:51;20.80;99.90
17364;DHT22;8799;43.594;13.526;2022-10-16T14:14:20;20.60;99.90
17364;DHT22;8799;43.594;13.526;2022-10-16T14:16:51;20.60;99.90
17364;DHT22;8799;43.594;13.526;2022-10-16T14:19:21;20.60;99.90
17364;DHT22;8799;43.594;13.526;2022-10-16T14:21:52;20.60;99.90
17364;DHT22;8799;43.594;13.526;2022-10-16T14:24:26;20.60;99.90
17364;DHT22;8799;43.594;13.526;2022-10-16T14:26:54;20.60;99.90
17364;DHT22;8799;43.594;13.526;2022-10-16T14:29:24;20.60;99.90
17364;DHT22;8799;43.594;13.526;2022-10-16T14:31:55;20.60;99.90
17364;DHT22;8799;43.594;13.526;2022-10-16T14:34:38;20.60;99.90
17364;DHT22;8799;43.594;13.526;2022-10-16T14:37:13;20.60;99.90
17364;DHT22;8799;43.594;13.526;2022-10-16T14:39:42;20.60;99.90
17364;DHT22;8799;43.594;13.526;2022-10-16T14:42:14;20.60;99.90
17364;DHT22;8799;43.594;13.526;2022-10-16T14:44:44;20.60;99.90
17364;DHT22;8799;43.594;13.526;2022-10-16T14:47:14;20.60;99.90
17364;DHT22;8799;43.594;13.526;2022-10-16T14:49:43;20.60;99.90
17364;DHT22;8799;43.594;13.526;2022-10-16T14:52:14;20.60;99.90
17364;DHT22;8799;43.594;13.526;2022-10-16T14:54:42;20.70;99.90
17364;DHT22;8799;43.594;13.526;2022-10-16T14:57:17;20.70;99.90
17364;DHT22;8799;43.594;13.526;2022-10-16T14:59:45;20.60;99.90
17364;DHT22;8799;43.594;13.526;2022-10-16T15:02:27;20.70;99.90
17364;DHT22;8799;43.594;13.526;2022-10-16T15:04:56;20.70;99.90
17364;DHT22;8799;43.594;13.526;2022-10-16T15:07:27;20.70;99.90
17364;DHT22;8799;43.594;13.526;2022-10-16T15:09:55;20.60;99.90
17364;DHT22;8799;43.594;13.526;2022-10-16T15:12:23;20.70;99.90
17364;DHT22;8799;43.594;13.526;2022-10-16T15:14:51;20.60;99.90
17364;DHT22;8799;43.594;13.526;2022-10-16T15:17:19;20.70;99.90
17364;DHT22;8799;43.594;13.526;2022-10-16T15:19:48;20.70;99.90
17364;DHT22;8799;43.594;13.526;2022-10-16T15:22:51;20.70;99.90
17364;DHT22;8799;43.594;13.526;2022-10-16T15:25:34;20.70;99.90
17364;DHT22;8799;43.594;13.526;2022-10-16T15:28:03;20.70;99.90
17364;DHT22;8799;43.594;13.526;2022-10-16T15:30:31;20.70;99.90
17364;DHT22;8799;43.594;13.526;2022-10-16T15:32:59;20.60;99.90
17364;DHT22;8799;43.594;13.526;2022-10-16T15:35:27;20.60;99.90
17364;DHT22;8799;43.594;13.526;2022-10-16T15:37:56;20.70;99.90
17364;DHT22;8799;43.594;13.526;2022-10-16T15:40:27;20.10;99.90
17364;DHT22;8799;43.594;13.526;2022-10-16T15:42:55;20.60;99.90
17364;DHT22;8799;43.594;13.526;2022-10-16T15:45:22;20.60;99.90
17364;DHT22;8799;43.594;13.526;2022-10-16T15:47:50;20.70;99.90
17364;DHT22;8799;43.594;13.526;2022-10-16T15:50:19;20.70;99.90
17364;DHT22;8799;43.594;13.526;2022-10-16T15:52:47;20.60;99.90
17364;DHT22;8799;43.594;13.526;2022-10-16T15:55:18;20.60;99.90
17364;DHT22;8799;43.594;13.526;2022-10-16T15:57:53;20.70;99.90
17364;DHT22;8799;43.594;13.526;2022-10-16T16:00:22;20.60;99.90
17364;DHT22;8799;43.594;13.526;2022-10-16T16:02:52;20.60;99.90